Time;durP1;ratioP1;P1;durP2;ratioP2;P2;SDS_P1;SDS_P2;PMS_P1;PMS_P2;Temp;Humidity;BMP_temperature;BMP_pressure;BME280_temperature;BME280_humidity;BME280_pressure;Samples;Min_cycle;Max_cycle;Signal;HPM_P1;HPM_P2
2023/10/25 00:03:20;;;;;;;36.33;20.45;;;;;;;;;;8389968;28;20068;-92
2023/10/25 00:07:22;;;;;;;37.20;21.35;;;;;;;;;;8384219;28;20462;-93
2023/10/25 00:11:27;;;;;;;35.30;20.08;;;;;;;;;;8397459;28;20095;-92
2023/10/25 00:15:31;;;;;;;30.42;17.52;;;;;;;;;;8397583;28;20049;-90
2023/10/25 00:19:34;;;;;;;33.28;21.23;;;;;;;;;;8397679;28;20072;-93
2023/10/25 00:23:37;;;;;;;31.92;19.45;;;;;;;;;;8397318;28;20093;-91
2023/10/25 00:27:45;;;;;;;34.92;19.10;;;;;;;;;;8397148;28;20128;-91
2023/10/25 00:31:48;;;;;;;30.27;18.65;;;;;;;;;;8396568;28;20400;-91
2023/10/25 00:35:51;;;;;;;34.88;20.80;;;;;;;;;;8397009;28;20127;-93
2023/10/25 00:39:56;;;;;;;33.20;18.55;;;;;;;;;;8384111;28;20119;-91
2023/10/25 00:44:01;;;;;;;29.33;18.23;;;;;;;;;;8396993;28;20057;-92
2023/10/25 00:48:04;;;;;;;31.98;19.55;;;;;;;;;;8371120;28;20040;-92
2023/10/25 00:52:07;;;;;;;34.10;19.05;;;;;;;;;;8399582;28;20447;-91
2023/10/25 00:56:12;;;;;;;28.55;18.25;;;;;;;;;;8403473;28;20071;-93
2023/10/25 01:00:17;;;;;;;28.95;18.00;;;;;;;;;;8403365;28;20071;-92
2023/10/25 01:04:20;;;;;;;26.20;17.25;;;;;;;;;;8403056;28;20135;-92
2023/10/25 01:08:23;;;;;;;30.02;17.35;;;;;;;;;;8402893;28;20496;-93
2023/10/25 01:12:26;;;;;;;30.65;17.40;;;;;;;;;;8403170;28;20036;-92
2023/10/25 01:16:30;;;;;;;32.55;17.48;;;;;;;;;;8402210;28;20210;-92
2023/10/25 01:20:34;;;;;;;29.80;16.13;;;;;;;;;;8389084;28;20404;-92
2023/10/25 01:24:39;;;;;;;29.35;14.93;;;;;;;;;;8402378;28;20045;-94
2023/10/25 01:28:42;;;;;;;23.73;14.57;;;;;;;;;;8388206;28;20064;-93
2023/10/25 01:32:45;;;;;;;31.05;14.68;;;;;;;;;;8402501;28;20406;-93
2023/10/25 01:36:49;;;;;;;28.45;13.93;;;;;;;;;;8401676;28;20044;-92
2023/10/25 01:40:53;;;;;;;24.33;13.02;;;;;;;;;;8402070;28;20093;-90
2023/10/25 01:44:56;;;;;;;23.20;13.05;;;;;;;;;;8401710;28;20055;-94
2023/10/25 01:48:59;;;;;;;22.10;11.90;;;;;;;;;;8388425;28;20044;-92
2023/10/25 01:53:02;;;;;;;20.88;11.88;;;;;;;;;;8402082;28;20068;-91
2023/10/25 01:57:07;;;;;;;21.98;11.05;;;;;;;;;;8388623;28;20044;-93
2023/10/25 02:01:10;;;;;;;18.58;10.45;;;;;;;;;;8401145;28;20072;-92
2023/10/25 02:05:12;;;;;;;19.02;10.73;;;;;;;;;;8399814;28;20048;-93
2023/10/25 02:09:15;;;;;;;18.40;9.65;;;;;;;;;;8401406;28;20068;-94
2023/10/25 02:13:21;;;;;;;17.67;9.18;;;;;;;;;;8397602;28;20072;-91
2023/10/25 02:17:23;;;;;;;147.30;116.90;;;;;;;;;;8387838;28;20500;-91
2023/10/25 02:21:27;;;;;;;264.13;188.90;;;;;;;;;;8393018;28;20059;-91
2023/10/25 02:25:30;;;;;;;229.38;166.38;;;;;;;;;;8399654;28;20055;-93
2023/10/25 02:29:34;;;;;;;109.05;90.85;;;;;;;;;;8400104;28;20048;-92
2023/10/25 02:33:38;;;;;;;41.80;32.83;;;;;;;;;;8394334;28;20063;-94
2023/10/25 02:37:42;;;;;;;31.38;27.40;;;;;;;;;;8391556;28;20098;-94
2023/10/25 02:41:45;;;;;;;29.33;21.67;;;;;;;;;;8387197;28;20420;-93
2023/10/25 02:45:49;;;;;;;30.55;22.30;;;;;;;;;;8398401;28;20051;-95
2023/10/25 02:49:52;;;;;;;18.23;13.25;;;;;;;;;;8399111;28;20128;-91
2023/10/25 02:53:55;;;;;;;21.30;14.07;;;;;;;;;;8391341;28;20049;-94
2023/10/25 02:57:58;;;;;;;20.23;11.13;;;;;;;;;;8378516;28;20120;-94
2023/10/25 03:02:04;;;;;;;16.50;11.65;;;;;;;;;;8384962;28;20048;-91
2023/10/25 03:06:07;;;;;;;28.95;20.98;;;;;;;;;;8394674;28;20097;-91
2023/10/25 03:10:10;;;;;;;26.35;20.90;;;;;;;;;;8399491;28;20040;-94
2023/10/25 03:14:13;;;;;;;13.27;9.98;;;;;;;;;;8389698;28;20102;-94
2023/10/25 03:18:19;;;;;;;13.18;10.88;;;;;;;;;;8380109;28;20053;-94
2023/10/25 03:22:22;;;;;;;26.75;24.17;;;;;;;;;;8398456;28;20476;-90
2023/10/25 03:26:25;;;;;;;129.57;116.90;;;;;;;;;;8395515;28;20049;-94
2023/10/25 03:30:28;;;;;;;42.55;38.13;;;;;;;;;;8401932;22;20060;-94
2023/10/25 03:34:33;;;;;;;37.47;31.73;;;;;;;;;;8385532;28;20521;-94
2023/10/25 03:38:36;;;;;;;34.15;26.83;;;;;;;;;;8398524;28;20036;-93
2023/10/25 03:42:39;;;;;;;32.22;28.92;;;;;;;;;;8411844;28;20047;-92
2023/10/25 03:46:42;;;;;;;26.55;23.75;;;;;;;;;;8399949;28;20132;-90
2023/10/25 03:50:46;;;;;;;13.27;11.77;;;;;;;;;;8393512;28;20056;-94
2023/10/25 03:54:59;;;;;;;;;;;;;;;;;;;;;
2023/10/25 03:59:02;;;;;;;22.45;17.65;;;;;;;;;;8396289;28;20440;-89
2023/10/25 04:03:05;;;;;;;25.58;22.77;;;;;;;;;;8397732;28;20480;-91
2023/10/25 04:07:11;;;;;;;20.30;16.30;;;;;;;;;;8396559;28;20048;-90
2023/10/25 04:11:14;;;;;;;10.48;6.80;;;;;;;;;;8383443;28;20045;-90
2023/10/25 04:15:17;;;;;;;13.68;9.63;;;;;;;;;;8394044;28;20112;-90
2023/10/25 04:19:20;;;;;;;24.33;17.63;;;;;;;;;;8395189;28;20120;-91
2023/10/25 04:23:25;;;;;;;10.77;7.38;;;;;;;;;;8392668;28;20123;-90
2023/10/25 04:27:28;;;;;;;13.63;10.13;;;;;;;;;;8394556;28;20067;-91
2023/10/25 04:31:31;;;;;;;11.57;7.95;;;;;;;;;;8383638;28;20447;-90
2023/10/25 04:35:34;;;;;;;11.40;7.78;;;;;;;;;;8392260;28;20062;-90
2023/10/25 04:39:39;;;;;;;14.18;9.75;;;;;;;;;;8395493;28;20115;-90
2023/10/25 04:43:44;;;;;;;11.50;8.15;;;;;;;;;;8395677;28;20055;-90
2023/10/25 04:47:47;;;;;;;10.73;8.13;;;;;;;;;;8395916;28;20097;-90
2023/10/25 04:51:50;;;;;;;10.57;7.90;;;;;;;;;;8395561;28;20044;-90
2023/10/25 04:55:54;;;;;;;12.95;7.35;;;;;;;;;;8375943;28;20489;-91
2023/10/25 04:59:57;;;;;;;10.95;7.72;;;;;;;;;;8388983;28;20045;-90
2023/10/25 05:04:00;;;;;;;11.52;7.43;;;;;;;;;;8394986;28;20064;-90
2023/10/25 05:08:03;;;;;;;9.60;7.13;;;;;;;;;;8381846;28;20412;-90
2023/10/25 05:12:11;;;;;;;10.02;6.47;;;;;;;;;;8395069;28;20045;-91
2023/10/25 05:16:15;;;;;;;11.65;7.20;;;;;;;;;;8383871;28;20075;-89
2023/10/25 05:20:20;;;;;;;12.07;7.43;;;;;;;;;;8387759;28;20044;-89
2023/10/25 05:24:24;;;;;;;13.15;7.50;;;;;;;;;;8381640;28;20377;-90
2023/10/25 05:28:30;;;;;;;14.93;7.68;;;;;;;;;;8384754;28;20076;-92
2023/10/25 05:32:33;;;;;;;18.15;9.23;;;;;;;;;;8393880;28;20048;-90
2023/10/25 05:36:37;;;;;;;18.42;9.30;;;;;;;;;;8396115;28;20553;-95
2023/10/25 05:45:15;;;;;;;20.60;10.68;;;;;;;;;;8385404;28;20068;-92
2023/10/25 05:49:19;;;;;;;25.92;11.63;;;;;;;;;;8383001;28;20071;-95
2023/10/25 05:53:22;;;;;;;25.17;12.15;;;;;;;;;;8398571;28;20051;-93
2023/10/25 05:57:26;;;;;;;26.27;11.55;;;;;;;;;;8388868;28;20044;-90
2023/10/25 06:01:41;;;;;;;26.80;13.52;;;;;;;;;;8403378;28;20094;-96
2023/10/25 06:05:45;;;;;;;25.35;12.98;;;;;;;;;;8403420;28;20044;-93
2023/10/25 06:09:49;;;;;;;23.20;12.45;;;;;;;;;;8394245;28;20100;-91
2023/10/25 06:13:52;;;;;;;29.98;13.60;;;;;;;;;;8403363;28;20129;-90
2023/10/25 06:17:57;;;;;;;28.48;13.95;;;;;;;;;;8395414;28;20127;-90
2023/10/25 06:22:00;;;;;;;27.67;14.35;;;;;;;;;;8395956;28;20051;-91
2023/10/25 06:26:03;;;;;;;29.73;15.40;;;;;;;;;;8386303;28;20135;-90
2023/10/25 06:30:08;;;;;;;24.52;14.65;;;;;;;;;;8399964;28;20581;-95
2023/10/25 06:34:12;;;;;;;25.23;13.82;;;;;;;;;;8373049;28;20086;-91
2023/10/25 06:38:15;;;;;;;31.38;16.02;;;;;;;;;;8388167;28;20044;-90
2023/10/25 06:42:19;;;;;;;29.77;14.13;;;;;;;;;;8397594;28;20040;-91
2023/10/25 06:46:22;;;;;;;26.17;15.65;;;;;;;;;;8399472;28;20040;-90
2023/10/25 06:50:28;;;;;;;27.27;14.85;;;;;;;;;;8399231;28;20047;-92
2023/10/25 06:54:32;;;;;;;30.80;16.20;;;;;;;;;;8399973;28;20064;-90
2023/10/25 06:58:35;;;;;;;27.90;16.77;;;;;;;;;;8399065;28;20120;-89
2023/10/25 07:02:46;;;;;;;29.17;15.98;;;;;;;;;;8398566;28;20532;-91
2023/10/25 07:06:52;;;;;;;29.88;16.23;;;;;;;;;;8388427;28;20041;-92
2023/10/25 07:10:55;;;;;;;29.20;15.82;;;;;;;;;;8391653;28;20045;-93
2023/10/25 07:14:58;;;;;;;29.98;15.00;;;;;;;;;;8386654;28;20072;-91
2023/10/25 07:19:04;;;;;;;27.77;14.60;;;;;;;;;;8390863;28;20084;-91
2023/10/25 07:23:08;;;;;;;34.33;16.83;;;;;;;;;;8398509;28;20040;-89
2023/10/25 07:27:12;;;;;;;29.63;15.02;;;;;;;;;;8398588;28;20044;-91
2023/10/25 07:31:15;;;;;;;30.45;16.20;;;;;;;;;;8389989;28;20057;-90
2023/10/25 07:35:18;;;;;;;33.83;18.73;;;;;;;;;;8392530;28;20135;-93
2023/10/25 07:39:23;;;;;;;33.13;15.77;;;;;;;;;;8390587;28;20045;-90
2023/10/25 07:43:25;;;;;;;36.90;17.92;;;;;;;;;;8395756;28;20120;-91
2023/10/25 07:47:28;;;;;;;29.52;15.20;;;;;;;;;;8397454;28;20553;-91
2023/10/25 07:51:31;;;;;;;24.27;12.35;;;;;;;;;;8375905;28;20584;-92
2023/10/25 07:55:40;;;;;;;27.42;14.18;;;;;;;;;;8397310;28;20381;-93
2023/10/25 07:59:42;;;;;;;25.00;13.60;;;;;;;;;;8389836;28;20071;-93
2023/10/25 08:03:52;;;;;;;20.65;12.07;;;;;;;;;;8387673;28;20087;-94
2023/10/25 08:08:18;;;;;;;17.02;10.30;;;;;;;;;;8446087;22;20072;-96
2023/10/25 08:12:39;;;;;;;14.60;9.65;;;;;;;;;;8431070;28;20067;-94
2023/10/25 08:17:03;;;;;;;15.07;7.57;;;;;;;;;;8421074;28;20077;-94
2023/10/25 08:21:14;;;;;;;15.70;8.90;;;;;;;;;;8448127;28;20517;-94
2023/10/25 08:25:21;;;;;;;15.00;9.13;;;;;;;;;;8447633;28;20483;-93
2023/10/25 08:29:30;;;;;;;13.52;9.15;;;;;;;;;;8453100;28;20416;-95
2023/10/25 08:33:40;;;;;;;16.52;11.10;;;;;;;;;;8491289;22;20051;-93
2023/10/25 08:37:58;;;;;;;15.13;9.70;;;;;;;;;;8448454;28;20051;-94
2023/10/25 08:42:21;;;;;;;13.15;9.85;;;;;;;;;;8457701;28;20043;-95
2023/10/25 08:46:27;;;;;;;15.23;9.40;;;;;;;;;;8451489;28;20044;-94
2023/10/25 08:50:34;;;;;;;15.73;9.88;;;;;;;;;;8447337;28;20085;-91
2023/10/25 08:54:37;;;;;;;10.52;7.78;;;;;;;;;;8445973;28;20063;-91
2023/10/25 08:58:40;;;;;;;15.60;9.85;;;;;;;;;;8442033;28;20401;-90
2023/10/25 09:02:48;;;;;;;11.35;7.88;;;;;;;;;;8449222;28;20126;-96
2023/10/25 09:06:54;;;;;;;10.80;7.53;;;;;;;;;;8455014;28;20041;-94
2023/10/25 09:11:00;;;;;;;11.80;7.93;;;;;;;;;;8446086;28;20123;-96
2023/10/25 09:15:07;;;;;;;12.18;7.32;;;;;;;;;;8455688;28;20101;-90
2023/10/25 09:19:12;;;;;;;14.20;9.40;;;;;;;;;;8443604;28;20048;-91
2023/10/25 09:23:19;;;;;;;6.43;4.80;;;;;;;;;;8466620;28;20479;-91
2023/10/25 09:32:13;;;;;;;8.65;6.18;;;;;;;;;;8340368;28;20065;-91
2023/10/25 09:40:47;;;;;;;7.60;5.20;;;;;;;;;;8287432;28;20066;-93
2023/10/25 09:44:56;;;;;;;8.07;5.32;;;;;;;;;;8296536;28;20050;-96
2023/10/25 09:49:08;;;;;;;7.65;3.80;;;;;;;;;;8303212;28;20061;-95
2023/10/25 09:53:23;;;;;;;6.40;3.67;;;;;;;;;;8300369;28;20069;-93
2023/10/25 09:57:29;;;;;;;5.78;3.55;;;;;;;;;;8282458;28;20088;-92
2023/10/25 10:01:38;;;;;;;6.63;3.40;;;;;;;;;;8297170;28;20184;-92
2023/10/25 10:05:50;;;;;;;6.22;4.38;;;;;;;;;;8291636;28;20069;-93
2023/10/25 10:14:35;;;;;;;5.30;3.75;;;;;;;;;;8422019;28;19947;-92
2023/10/25 10:18:40;;;;;;;6.93;4.03;;;;;;;;;;8426081;28;20048;-96
2023/10/25 10:23:02;;;;;;;6.07;3.88;;;;;;;;;;8428818;28;20094;-91
2023/10/25 10:27:17;;;;;;;5.80;4.10;;;;;;;;;;8412180;28;20043;-94
2023/10/25 10:31:20;;;;;;;8.68;4.80;;;;;;;;;;8423382;28;20055;-94
2023/10/25 10:35:42;;;;;;;9.20;5.68;;;;;;;;;;8434977;28;20048;-96
2023/10/25 10:40:17;;;;;;;10.15;6.88;;;;;;;;;;8445226;28;20073;-96
2023/10/25 10:44:27;;;;;;;10.25;6.70;;;;;;;;;;8414762;28;20048;-96
2023/10/25 10:48:33;;;;;;;13.02;8.05;;;;;;;;;;8446142;28;20457;-96
2023/10/25 10:52:37;;;;;;;11.60;7.90;;;;;;;;;;8442338;28;20040;-95
2023/10/25 10:56:40;;;;;;;12.50;9.55;;;;;;;;;;8402707;28;20073;-95
2023/10/25 11:00:46;;;;;;;12.27;8.60;;;;;;;;;;8432415;28;20613;-92
2023/10/25 11:04:48;;;;;;;17.35;12.02;;;;;;;;;;8434026;28;20044;-93
2023/10/25 11:08:54;;;;;;;13.82;9.23;;;;;;;;;;8445262;28;20498;-94
2023/10/25 11:12:58;;;;;;;16.17;9.48;;;;;;;;;;8432738;28;20077;-94
2023/10/25 11:17:03;;;;;;;14.40;8.18;;;;;;;;;;8426282;28;20434;-92
2023/10/25 11:21:06;;;;;;;15.50;9.40;;;;;;;;;;8431821;28;20040;-94
2023/10/25 11:25:11;;;;;;;18.08;11.32;;;;;;;;;;8414986;28;20056;-90
2023/10/25 11:29:20;;;;;;;17.35;9.75;;;;;;;;;;8432976;28;20044;-94
2023/10/25 11:33:25;;;;;;;17.38;10.82;;;;;;;;;;8446179;28;20071;-91
2023/10/25 11:37:42;;;;;;;18.88;12.05;;;;;;;;;;8433290;28;20051;-89
2023/10/25 11:41:46;;;;;;;20.15;12.00;;;;;;;;;;8435270;28;20047;-91
2023/10/25 11:45:57;;;;;;;21.20;12.10;;;;;;;;;;8450458;28;20069;-91
2023/10/25 11:54:59;;;;;;;21.38;12.27;;;;;;;;;;8444419;28;20051;-91
2023/10/25 11:59:22;;;;;;;24.15;13.73;;;;;;;;;;8445947;28;20044;-92
2023/10/25 12:03:53;;;;;;;21.33;12.57;;;;;;;;;;8437237;28;20044;-92
2023/10/25 12:08:22;;;;;;;25.48;12.88;;;;;;;;;;8429580;28;20074;-91
2023/10/25 12:12:26;;;;;;;27.17;14.65;;;;;;;;;;8450985;28;20404;-91
2023/10/25 12:16:54;;;;;;;18.38;10.02;;;;;;;;;;8420470;28;20052;-92
2023/10/25 12:21:41;;;;;;;27.73;14.20;;;;;;;;;;8457986;28;20039;-90
2023/10/25 12:30:57;;;;;;;;;;;;;;;;;;8344743;28;20060;-92
2023/10/25 12:39:51;;;;;;;27.02;14.15;;;;;;;;;;8417573;28;20044;-93
2023/10/25 12:44:14;;;;;;;25.58;12.77;;;;;;;;;;8419715;28;20067;-90
2023/10/25 12:48:48;;;;;;;27.05;14.30;;;;;;;;;;8414455;28;20080;-91
2023/10/25 12:52:57;;;;;;;27.00;12.75;;;;;;;;;;8427734;28;20091;-92
2023/10/25 12:57:21;;;;;;;23.08;12.32;;;;;;;;;;8378824;28;20049;-92
2023/10/25 13:01:50;;;;;;;21.60;12.57;;;;;;;;;;8370732;28;20052;-92
2023/10/25 13:06:04;;;;;;;22.58;11.85;;;;;;;;;;8384352;28;20117;-91
2023/10/25 13:10:13;;;;;;;25.58;12.73;;;;;;;;;;8422773;28;20032;-92
2023/10/25 13:14:22;;;;;;;36.13;15.90;;;;;;;;;;8351024;28;20056;-91
2023/10/25 13:19:09;;;;;;;22.77;12.27;;;;;;;;;;8402284;28;20037;-92
2023/10/25 13:23:45;;;;;;;27.00;15.60;;;;;;;;;;8418145;28;20044;-93
2023/10/25 13:27:49;;;;;;;28.00;15.23;;;;;;;;;;8302833;28;20094;-93
2023/10/25 13:32:30;;;;;;;26.85;15.00;;;;;;;;;;8298535;28;20093;-93
2023/10/25 13:36:34;;;;;;;26.58;14.30;;;;;;;;;;8311162;28;20544;-93
2023/10/25 13:40:46;;;;;;;27.15;13.13;;;;;;;;;;8421864;23;20180;-93
2023/10/25 13:44:53;;;;;;;28.35;13.98;;;;;;;;;;8456581;27;20051;-94
2023/10/25 13:53:14;;;;;;;30.27;15.75;;;;;;;;;;8495268;27;20051;-92
2023/10/25 13:57:19;;;;;;;28.85;15.02;;;;;;;;;;8493763;27;20411;-93
2023/10/25 14:01:22;;;;;;;29.45;16.35;;;;;;;;;;8474732;27;20054;-94
2023/10/25 14:05:28;;;;;;;31.92;15.88;;;;;;;;;;8491326;27;20046;-92
2023/10/25 14:09:32;;;;;;;28.13;15.57;;;;;;;;;;8490600;27;20078;-94
2023/10/25 14:13:36;;;;;;;31.35;15.20;;;;;;;;;;8488849;27;20039;-95
2023/10/25 14:17:40;;;;;;;31.80;15.15;;;;;;;;;;8495082;27;20035;-94
2023/10/25 14:21:44;;;;;;;28.15;15.05;;;;;;;;;;8494831;27;20043;-93
2023/10/25 14:25:56;;;;;;;28.95;15.80;;;;;;;;;;8472547;27;20042;-93
2023/10/25 14:30:00;;;;;;;;;;;;;;;;;;8488537;27;20043;-92
2023/10/25 14:34:06;;;;;;;28.05;14.55;;;;;;;;;;8498821;27;19988;-92
2023/10/25 14:38:09;;;;;;;30.80;16.48;;;;;;;;;;8470069;22;20430;-93
2023/10/25 14:42:12;;;;;;;39.15;21.25;;;;;;;;;;8429353;28;20071;-95
2023/10/25 14:46:18;;;;;;;38.70;18.55;;;;;;;;;;8428970;28;20047;-96
2023/10/25 14:50:29;;;;;;;32.97;14.85;;;;;;;;;;8434627;28;20052;-95
2023/10/25 14:54:32;;;;;;;34.67;17.85;;;;;;;;;;8422694;28;20391;-94
2023/10/25 14:58:36;;;;;;;29.13;14.68;;;;;;;;;;8424131;28;20048;-93
2023/10/25 15:02:48;;;;;;;29.85;15.23;;;;;;;;;;8433160;28;20072;-90
2023/10/25 15:06:51;;;;;;;32.72;16.42;;;;;;;;;;8421685;28;20060;-94
2023/10/25 15:10:55;;;;;;;31.77;14.43;;;;;;;;;;8432160;28;20040;-93
2023/10/25 15:15:01;;;;;;;29.25;14.98;;;;;;;;;;8420754;28;20048;-95
2023/10/25 15:19:16;;;;;;;31.30;16.65;;;;;;;;;;8424286;28;20055;-95
2023/10/25 15:23:24;;;;;;;26.73;14.35;;;;;;;;;;8415022;28;20086;-94
2023/10/25 15:27:30;;;;;;;32.30;16.77;;;;;;;;;;8425246;28;20044;-95
2023/10/25 15:31:34;;;;;;;35.97;16.67;;;;;;;;;;8422624;28;20484;-93
2023/10/25 15:35:39;;;;;;;28.17;15.15;;;;;;;;;;8431777;28;20032;-93
2023/10/25 15:39:42;;;;;;;30.27;15.20;;;;;;;;;;8428105;28;20055;-93
2023/10/25 15:43:45;;;;;;;33.83;16.02;;;;;;;;;;8401051;28;20155;-95
2023/10/25 15:47:53;;;;;;;35.38;17.13;;;;;;;;;;8421628;28;20048;-95
2023/10/25 15:51:58;;;;;;;28.63;14.30;;;;;;;;;;8430295;28;20046;-94
2023/10/25 15:56:16;;;;;;;32.15;15.90;;;;;;;;;;8428348;28;20100;-96
2023/10/25 16:00:19;;;;;;;34.15;15.77;;;;;;;;;;8414471;28;20484;-93
2023/10/25 16:04:34;;;;;;;31.48;14.95;;;;;;;;;;8421180;28;20102;-94
2023/10/25 16:08:41;;;;;;;29.33;14.63;;;;;;;;;;8419070;28;20055;-93
2023/10/25 16:12:44;;;;;;;36.55;16.63;;;;;;;;;;8419714;28;20044;-94
2023/10/25 16:16:59;;;;;;;27.73;14.70;;;;;;;;;;8423490;28;20054;-95
2023/10/25 16:21:05;;;;;;;32.45;16.73;;;;;;;;;;8416797;28;20049;-92
2023/10/25 16:25:14;;;;;;;31.85;16.45;;;;;;;;;;8428689;28;20051;-92
2023/10/25 16:29:39;;;;;;;37.53;21.17;;;;;;;;;;8435048;28;20195;-94
2023/10/25 16:34:05;;;;;;;43.80;24.63;;;;;;;;;;8428098;28;20044;-95
2023/10/25 16:38:13;;;;;;;69.90;41.25;;;;;;;;;;8411177;28;20052;-93
2023/10/25 16:42:42;;;;;;;54.80;32.83;;;;;;;;;;8420568;28;20040;-92
2023/10/25 16:46:49;;;;;;;48.60;27.45;;;;;;;;;;8411687;28;20041;-92
2023/10/25 16:51:18;;;;;;;81.38;35.25;;;;;;;;;;8426987;28;20052;-95
2023/10/25 16:55:25;;;;;;;102.50;37.53;;;;;;;;;;8431179;28;20056;-93
2023/10/25 16:59:31;;;;;;;42.78;20.00;;;;;;;;;;8430537;28;20040;-90
2023/10/25 17:03:36;;;;;;;89.68;28.70;;;;;;;;;;8430648;28;20106;-93
2023/10/25 17:12:24;;;;;;;34.45;15.50;;;;;;;;;;8393412;28;20087;-88
2023/10/25 17:16:49;;;;;;;27.42;13.32;;;;;;;;;;8419577;28;20135;-92
2023/10/25 17:25:16;;;;;;;26.00;13.43;;;;;;;;;;8409379;28;20190;-93
2023/10/25 17:29:22;;;;;;;40.17;17.85;;;;;;;;;;8424133;28;20495;-91
2023/10/25 17:33:28;;;;;;;28.67;14.23;;;;;;;;;;8430418;28;20156;-91
2023/10/25 17:37:32;;;;;;;28.27;14.88;;;;;;;;;;8415001;28;20203;-92
2023/10/25 17:41:38;;;;;;;28.00;14.52;;;;;;;;;;8431350;28;20094;-89
2023/10/25 17:45:43;;;;;;;29.85;15.90;;;;;;;;;;8436406;28;20043;-93
2023/10/25 17:49:52;;;;;;;27.40;15.43;;;;;;;;;;8429278;28;20131;-91
2023/10/25 17:54:06;;;;;;;32.33;17.00;;;;;;;;;;8432737;28;20052;-92
2023/10/25 17:58:27;;;;;;;25.85;14.00;;;;;;;;;;8431883;28;20043;-92
2023/10/25 18:02:32;;;;;;;18.98;11.57;;;;;;;;;;8434041;28;20055;-92
2023/10/25 18:06:38;;;;;;;22.45;11.55;;;;;;;;;;8446133;28;20047;-95
2023/10/25 18:10:52;;;;;;;66.65;33.97;;;;;;;;;;8422779;28;20089;-93
2023/10/25 18:15:05;;;;;;;39.45;15.65;;;;;;;;;;8425957;28;20075;-95
2023/10/25 18:19:10;;;;;;;25.75;11.95;;;;;;;;;;8423836;28;20051;-90
2023/10/25 18:23:17;;;;;;;24.98;13.35;;;;;;;;;;8432835;28;20048;-93
2023/10/25 18:27:24;;;;;;;18.77;11.57;;;;;;;;;;8401787;28;20060;-91
2023/10/25 18:31:32;;;;;;;26.98;14.40;;;;;;;;;;8424691;28;20050;-91
2023/10/25 18:35:40;;;;;;;28.20;17.95;;;;;;;;;;8433741;28;20051;-90
2023/10/25 18:39:53;;;;;;;35.75;18.83;;;;;;;;;;8400222;28;20084;-94
2023/10/25 18:44:00;;;;;;;65.82;31.30;;;;;;;;;;8400997;28;20051;-94
2023/10/25 18:48:08;;;;;;;74.72;30.90;;;;;;;;;;8394261;28;20401;-91
2023/10/25 18:52:14;;;;;;;56.63;22.55;;;;;;;;;;8396002;28;20040;-91
2023/10/25 18:56:24;;;;;;;58.13;22.15;;;;;;;;;;8399365;28;20169;-95
2023/10/25 19:00:33;;;;;;;44.78;19.85;;;;;;;;;;8396464;28;20045;-90
2023/10/25 19:04:39;;;;;;;42.10;18.67;;;;;;;;;;8392084;28;20127;-89
2023/10/25 19:08:46;;;;;;;51.90;19.88;;;;;;;;;;8398254;28;20145;-92
2023/10/25 19:12:53;;;;;;;44.85;20.33;;;;;;;;;;8389484;28;20071;-92
2023/10/25 19:16:57;;;;;;;69.22;30.90;;;;;;;;;;8388515;28;20746;-94
2023/10/25 19:21:04;;;;;;;53.30;23.90;;;;;;;;;;8380058;28;20049;-90
2023/10/25 19:25:10;;;;;;;43.28;18.35;;;;;;;;;;8398413;28;20048;-92
2023/10/25 19:29:21;;;;;;;45.80;19.02;;;;;;;;;;8382152;28;20056;-92
2023/10/25 19:33:27;;;;;;;27.55;14.80;;;;;;;;;;8394169;28;20045;-92
2023/10/25 19:37:33;;;;;;;28.25;15.10;;;;;;;;;;8401571;28;20487;-94
2023/10/25 19:41:39;;;;;;;46.88;19.50;;;;;;;;;;8433860;28;20046;-91
2023/10/25 19:45:46;;;;;;;128.50;40.42;;;;;;;;;;8422006;28;20093;-92
2023/10/25 19:49:51;;;;;;;53.13;19.17;;;;;;;;;;8419878;28;20047;-93
2023/10/25 19:53:55;;;;;;;24.13;13.85;;;;;;;;;;8433213;28;20060;-96
2023/10/25 19:58:01;;;;;;;21.08;13.57;;;;;;;;;;8429920;28;20071;-91
2023/10/25 20:02:09;;;;;;;30.58;15.32;;;;;;;;;;8422781;28;20122;-91
2023/10/25 20:06:22;;;;;;;25.25;13.35;;;;;;;;;;8413583;28;20070;-91
2023/10/25 20:10:29;;;;;;;24.55;14.60;;;;;;;;;;8431763;28;20070;-90
2023/10/25 20:14:34;;;;;;;27.15;14.52;;;;;;;;;;8430595;28;20048;-93
2023/10/25 20:18:43;;;;;;;41.67;19.10;;;;;;;;;;8424909;28;20064;-95
2023/10/25 20:22:49;;;;;;;32.47;16.65;;;;;;;;;;8429240;28;20035;-94
2023/10/25 20:26:55;;;;;;;103.72;47.15;;;;;;;;;;8413341;28;20095;-92
2023/10/25 20:31:04;;;;;;;31.75;18.13;;;;;;;;;;8427500;28;20044;-94
2023/10/25 20:35:11;;;;;;;27.02;15.50;;;;;;;;;;8419218;28;20050;-94
2023/10/25 20:39:15;;;;;;;27.48;16.25;;;;;;;;;;8429269;28;20044;-94
2023/10/25 20:43:20;;;;;;;28.15;15.25;;;;;;;;;;8425682;28;20165;-92
2023/10/25 20:47:25;;;;;;;26.90;16.25;;;;;;;;;;8430775;28;20468;-94
2023/10/25 20:51:32;;;;;;;28.30;15.25;;;;;;;;;;8429945;28;20480;-92
2023/10/25 20:55:36;;;;;;;24.88;15.23;;;;;;;;;;8426910;28;20122;-92
2023/10/25 20:59:39;;;;;;;26.85;15.85;;;;;;;;;;8421408;28;20056;-93
2023/10/25 21:03:42;;;;;;;39.35;20.98;;;;;;;;;;8429645;28;20119;-94
2023/10/25 21:07:46;;;;;;;48.13;20.05;;;;;;;;;;8413274;28;20520;-89
2023/10/25 21:11:49;;;;;;;34.78;18.90;;;;;;;;;;8436053;28;20040;-91
2023/10/25 21:15:53;;;;;;;27.95;17.23;;;;;;;;;;8436661;28;20500;-93
2023/10/25 21:19:56;;;;;;;30.13;16.80;;;;;;;;;;8435784;28;20071;-90
2023/10/25 21:24:00;;;;;;;43.50;26.27;;;;;;;;;;8436321;28;20622;-90
2023/10/25 21:28:04;;;;;;;28.58;16.85;;;;;;;;;;8436452;28;20059;-93
2023/10/25 21:32:21;;;;;;;97.45;31.90;;;;;;;;;;8425017;28;20052;-92
2023/10/25 21:36:25;;;;;;;73.15;26.52;;;;;;;;;;8435523;28;20036;-93
2023/10/25 21:40:31;;;;;;;26.35;14.48;;;;;;;;;;8435196;28;20051;-93
2023/10/25 21:44:35;;;;;;;23.30;14.93;;;;;;;;;;8432837;28;20764;-90
2023/10/25 21:48:38;;;;;;;23.13;14.23;;;;;;;;;;8432218;28;20410;-91
2023/10/25 21:52:50;;;;;;;30.50;15.95;;;;;;;;;;8416633;28;20487;-91
2023/10/25 21:56:56;;;;;;;52.40;23.63;;;;;;;;;;8434555;28;20489;-93
2023/10/25 22:00:59;;;;;;;73.10;37.45;;;;;;;;;;8433931;28;20105;-91
2023/10/25 22:05:02;;;;;;;80.38;28.02;;;;;;;;;;8433982;28;20047;-90
2023/10/25 22:09:11;;;;;;;37.10;16.88;;;;;;;;;;8432957;28;20423;-90
2023/10/25 22:13:18;;;;;;;32.85;13.80;;;;;;;;;;8410671;28;20048;-94
2023/10/25 22:17:21;;;;;;;23.63;12.82;;;;;;;;;;8415115;28;20419;-94
2023/10/25 22:21:24;;;;;;;31.10;12.07;;;;;;;;;;8429014;28;20237;-93
2023/10/25 22:25:27;;;;;;;24.60;12.82;;;;;;;;;;8431398;28;20062;-89
2023/10/25 22:29:32;;;;;;;57.30;24.23;;;;;;;;;;8415795;28;20087;-93
2023/10/25 22:33:35;;;;;;;26.27;13.18;;;;;;;;;;8416140;28;20652;-93
2023/10/25 22:37:38;;;;;;;27.33;13.23;;;;;;;;;;8424212;28;20062;-95
2023/10/25 22:41:44;;;;;;;26.40;12.80;;;;;;;;;;8433378;28;20043;-96
2023/10/25 22:45:56;;;;;;;24.98;11.93;;;;;;;;;;8432779;28;20051;-91
2023/10/25 22:49:59;;;;;;;24.48;12.50;;;;;;;;;;8414934;28;20047;-94
2023/10/25 22:54:02;;;;;;;25.80;12.98;;;;;;;;;;8411135;28;20051;-90
2023/10/25 22:58:06;;;;;;;29.90;12.93;;;;;;;;;;8425286;28;20047;-89
2023/10/25 23:02:10;;;;;;;26.05;11.95;;;;;;;;;;8430199;28;20449;-94
2023/10/25 23:06:13;;;;;;;26.52;12.73;;;;;;;;;;8427621;28;20141;-90
2023/10/25 23:10:22;;;;;;;34.83;13.52;;;;;;;;;;8411359;28;20041;-91
2023/10/25 23:14:25;;;;;;;27.08;12.40;;;;;;;;;;8419366;28;20066;-91
2023/10/25 23:18:30;;;;;;;31.88;13.25;;;;;;;;;;8419050;28;20104;-92
2023/10/25 23:22:33;;;;;;;29.55;12.43;;;;;;;;;;8423840;28;20135;-95
2023/10/25 23:26:42;;;;;;;32.75;13.18;;;;;;;;;;8427467;28;20062;-92
2023/10/25 23:30:49;;;;;;;40.05;12.73;;;;;;;;;;8409443;28;20044;-94
2023/10/25 23:35:01;;;;;;;44.55;13.38;;;;;;;;;;8448256;22;20453;-89
2023/10/25 23:39:04;;;;;;;39.83;13.70;;;;;;;;;;8493708;27;20038;-90
2023/10/25 23:43:07;;;;;;;34.13;12.82;;;;;;;;;;8493356;27;20051;-93
2023/10/25 23:47:10;;;;;;;44.60;11.77;;;;;;;;;;8497378;27;20059;-93
2023/10/25 23:51:29;;;;;;;32.05;13.10;;;;;;;;;;8496699;27;20062;-93
2023/10/25 23:55:32;;;;;;;37.17;14.23;;;;;;;;;;8500057;27;20070;-91
2023/10/25 23:59:35;;;;;;;30.65;13.80;;;;;;;;;;8490856;27;21052;-91
